Time;durP1;ratioP1;P1;durP2;ratioP2;P2;SDS_P1;SDS_P2;PMS_P1;PMS_P2;Temp;Humidity;BMP_temperature;BMP_pressure;BME280_temperature;BME280_humidity;BME280_pressure;Samples;Min_cycle;Max_cycle;Signal;HPM_P1;HPM_P2
2024/02/01 00:01:33;;;;;;;0.50;0.50;;;6.90;99.90;;;;;;5140754;27;20034;-79
2024/02/01 00:03:59;;;;;;;0.50;0.50;;;7.00;99.90;;;;;;5121956;27;20607;-79
2024/02/01 00:06:25;;;;;;;;;;;7.00;99.90;;;;;;5138927;27;20049;-77
2024/02/01 00:08:51;;;;;;;0.32;0.32;;;7.10;99.90;;;;;;5137271;27;19922;-77
2024/02/01 00:11:17;;;;;;;0.50;0.50;;;7.10;99.90;;;;;;5126694;27;20035;-78
2024/02/01 00:13:42;;;;;;;;;;;7.10;99.90;;;;;;5124103;27;20035;-78
2024/02/01 00:16:08;;;;;;;0.40;0.40;;;7.10;99.90;;;;;;5137766;27;20299;-78
2024/02/01 00:18:34;;;;;;;0.50;0.50;;;7.10;99.90;;;;;;5122636;27;20030;-78
2024/02/01 00:20:59;;;;;;;0.90;0.90;;;7.20;99.90;;;;;;5141012;27;20027;-79
2024/02/01 00:23:25;;;;;;;0.60;0.60;;;7.20;99.90;;;;;;5140817;27;20078;-77
2024/02/01 00:25:51;;;;;;;0.50;0.50;;;7.30;99.90;;;;;;5143111;27;20153;-78
2024/02/01 00:28:17;;;;;;;0.40;0.40;;;7.60;99.90;;;;;;5140501;27;20400;-78
2024/02/01 00:30:43;;;;;;;;;;;7.50;99.90;;;;;;5146283;27;20063;-80
2024/02/01 00:33:08;;;;;;;0.40;0.40;;;7.60;99.90;;;;;;5124769;27;19962;-79
2024/02/01 00:35:34;;;;;;;0.40;0.40;;;7.80;99.90;;;;;;5123250;27;20054;-79
2024/02/01 00:38:01;;;;;;;0.50;0.50;;;8.00;99.90;;;;;;5144082;27;20075;-78
2024/02/01 00:40:27;;;;;;;0.57;0.57;;;7.80;99.90;;;;;;5141607;27;20073;-79
2024/02/01 00:42:53;;;;;;;0.80;0.80;;;8.00;99.90;;;;;;5141143;27;20150;-79
2024/02/01 00:45:18;;;;;;;0.50;0.50;;;7.90;99.90;;;;;;5142982;27;20058;-80
2024/02/01 00:47:48;;;;;;;0.45;0.45;;;8.00;99.90;;;;;;5130236;27;20035;-81
2024/02/01 00:50:15;;;;;;;0.47;0.47;;;8.00;99.90;;;;;;5144848;27;20038;-80
2024/02/01 00:52:41;;;;;;;0.50;0.50;;;8.00;99.90;;;;;;5126102;27;20062;-79
2024/02/01 00:55:08;;;;;;;0.50;0.50;;;8.00;99.90;;;;;;5142506;27;20074;-79
2024/02/01 00:57:33;;;;;;;0.55;0.50;;;8.00;99.90;;;;;;5122490;27;20042;-80
2024/02/01 00:59:59;;;;;;;0.30;0.30;;;8.00;99.90;;;;;;5145376;27;20050;-79
2024/02/01 01:02:25;;;;;;;;;;;8.00;99.90;;;;;;5144229;27;20111;-80
2024/02/01 01:04:51;;;;;;;0.47;0.47;;;8.00;99.90;;;;;;5146130;27;19923;-78
2024/02/01 01:07:16;;;;;;;0.50;0.50;;;7.90;99.90;;;;;;5095127;27;20042;-78
2024/02/01 01:09:42;;;;;;;0.50;0.50;;;7.90;99.90;;;;;;5125119;27;20392;-79
2024/02/01 01:12:08;;;;;;;0.50;0.50;;;8.00;99.90;;;;;;5123180;27;20043;-79
2024/02/01 01:14:34;;;;;;;0.40;0.40;;;7.80;99.90;;;;;;5138357;27;20070;-80
2024/02/01 01:17:00;;;;;;;0.40;0.40;;;7.80;99.90;;;;;;5130957;27;20039;-82
2024/02/01 01:19:26;;;;;;;0.50;0.50;;;7.70;99.90;;;;;;5140909;27;20049;-80
2024/02/01 01:21:58;;;;;;;0.50;0.50;;;7.70;99.90;;;;;;5139207;27;20047;-79
2024/02/01 01:24:24;;;;;;;0.45;0.45;;;7.50;99.90;;;;;;5128220;27;20052;-80
2024/02/01 01:26:50;;;;;;;0.40;0.40;;;7.40;99.90;;;;;;5143762;27;20034;-80
2024/02/01 01:29:16;;;;;;;0.60;0.60;;;7.20;99.90;;;;;;5120585;27;20408;-80
2024/02/01 01:31:42;;;;;;;0.50;0.50;;;7.10;99.90;;;;;;5139070;27;20070;-79
2024/02/01 01:34:08;;;;;;;0.50;0.50;;;6.90;99.90;;;;;;5124724;27;20041;-79
2024/02/01 01:36:34;;;;;;;0.40;0.40;;;6.90;99.90;;;;;;5140071;27;20031;-79
2024/02/01 01:38:59;;;;;;;0.60;0.60;;;6.90;99.90;;;;;;5109369;27;20141;-79
2024/02/01 01:41:25;;;;;;;0.63;0.63;;;6.70;99.90;;;;;;5138977;27;20472;-81
2024/02/01 01:43:51;;;;;;;0.40;0.40;;;7.20;99.90;;;;;;5140493;27;20039;-80
2024/02/01 01:46:17;;;;;;;0.73;0.73;;;6.60;99.90;;;;;;5148296;27;20045;-81
2024/02/01 01:48:42;;;;;;;2.63;2.53;;;6.50;99.90;;;;;;5128374;27;20049;-81
2024/02/01 01:51:08;;;;;;;0.50;0.50;;;6.50;99.90;;;;;;5145897;27;20030;-81
2024/02/01 01:53:37;;;;;;;0.43;0.43;;;7.50;99.90;;;;;;5142594;27;20055;-80
2024/02/01 01:56:04;;;;;;;1.67;1.52;;;6.50;99.90;;;;;;5142102;27;20066;-79
2024/02/01 01:58:33;;;;;;;0.40;0.40;;;6.30;99.90;;;;;;5126753;27;20131;-81
2024/02/01 02:00:59;;;;;;;0.50;0.50;;;6.20;99.90;;;;;;5145450;27;20053;-79
2024/02/01 02:03:28;;;;;;;0.70;0.70;;;6.20;99.90;;;;;;5143046;27;20039;-81
2024/02/01 02:05:55;;;;;;;0.95;0.95;;;6.10;99.90;;;;;;5140122;27;20397;-81
2024/02/01 02:08:21;;;;;;;0.50;0.50;;;6.10;99.90;;;;;;5133830;27;20468;-80
2024/02/01 02:10:48;;;;;;;0.45;0.45;;;6.00;99.90;;;;;;5141018;27;20062;-79
2024/02/01 02:13:14;;;;;;;0.50;0.50;;;6.00;99.90;;;;;;5141958;27;20047;-81
2024/02/01 02:15:40;;;;;;;0.50;0.50;;;5.90;99.90;;;;;;5146506;27;20035;-81
2024/02/01 02:18:09;;;;;;;2.35;1.33;;;5.90;99.90;;;;;;5125685;27;20046;-82
2024/02/01 02:20:47;;;;;;;0.52;0.52;;;5.80;99.90;;;;;;5144407;27;20043;-81
2024/02/01 02:23:14;;;;;;;0.60;0.60;;;5.80;99.90;;;;;;5143886;27;20047;-79
2024/02/01 02:25:40;;;;;;;0.82;0.82;;;5.70;99.90;;;;;;5139993;27;20031;-80
2024/02/01 02:28:06;;;;;;;0.70;0.70;;;5.70;99.90;;;;;;5142807;27;20540;-80
2024/02/01 02:30:32;;;;;;;1.85;1.38;;;5.60;99.90;;;;;;5143675;27;20103;-80
2024/02/01 02:33:00;;;;;;;0.60;0.60;;;5.60;99.90;;;;;;5123800;27;20043;-80
2024/02/01 02:35:26;;;;;;;0.60;0.60;;;5.50;99.90;;;;;;5141061;27;20038;-78
2024/02/01 02:37:52;;;;;;;0.60;0.60;;;5.50;99.90;;;;;;5139631;27;20408;-78
2024/02/01 02:40:20;;;;;;;1.80;1.70;;;5.50;99.90;;;;;;5138938;27;20170;-80
2024/02/01 02:42:47;;;;;;;0.93;0.93;;;5.40;99.90;;;;;;5137343;27;20471;-80
2024/02/01 02:45:13;;;;;;;;;;;5.40;99.90;;;;;;5127158;27;20050;-79
2024/02/01 02:47:39;;;;;;;0.90;0.77;;;5.50;99.90;;;;;;5151214;27;19919;-85
2024/02/01 02:50:07;;;;;;;0.60;0.60;;;5.30;99.90;;;;;;5148700;27;20045;-85
2024/02/01 02:52:38;;;;;;;0.52;0.52;;;5.40;99.90;;;;;;5147672;27;20047;-83
2024/02/01 02:55:07;;;;;;;0.60;0.60;;;5.40;99.90;;;;;;5146609;27;20035;-82
2024/02/01 02:57:36;;;;;;;0.70;0.70;;;5.40;99.90;;;;;;5142192;27;20052;-84
2024/02/01 03:00:05;;;;;;;5.88;1.17;;;5.80;99.90;;;;;;5134203;27;20035;-85
2024/02/01 03:02:38;;;;;;;0.60;0.60;;;5.20;99.90;;;;;;5150641;27;20042;-83
2024/02/01 03:05:06;;;;;;;0.52;0.52;;;5.20;99.90;;;;;;5145138;27;20096;-84
2024/02/01 03:07:33;;;;;;;3.70;2.38;;;5.10;99.90;;;;;;5148054;27;20059;-84
2024/02/01 03:10:04;;;;;;;0.68;0.68;;;5.10;99.90;;;;;;5113599;27;20572;-84
2024/02/01 03:12:29;;;;;;;0.60;0.60;;;5.10;99.90;;;;;;5145419;27;20404;-83
2024/02/01 03:14:58;;;;;;;0.60;0.60;;;5.20;99.90;;;;;;5149056;27;20551;-85
2024/02/01 03:17:27;;;;;;;0.50;0.50;;;5.20;99.90;;;;;;5114262;27;20046;-82
2024/02/01 03:19:54;;;;;;;0.60;0.60;;;5.00;99.90;;;;;;5145681;27;20039;-83
2024/02/01 03:22:20;;;;;;;0.60;0.60;;;5.00;99.90;;;;;;5151733;27;20035;-84
2024/02/01 03:24:46;;;;;;;;;;;4.90;99.90;;;;;;5149183;27;20047;-85
2024/02/01 03:27:13;;;;;;;0.50;0.50;;;5.20;99.90;;;;;;5128239;27;19922;-84
2024/02/01 03:29:44;;;;;;;2.55;0.68;;;4.90;99.90;;;;;;5145037;27;20528;-84
2024/02/01 03:32:11;;;;;;;0.60;0.60;;;4.90;99.90;;;;;;5116716;27;20408;-83
2024/02/01 03:34:37;;;;;;;0.60;0.60;;;6.10;99.90;;;;;;5130705;27;20039;-83
2024/02/01 03:37:03;;;;;;;0.60;0.60;;;5.90;99.90;;;;;;5142228;27;20050;-85
2024/02/01 03:39:30;;;;;;;3.13;2.50;;;4.70;99.90;;;;;;5131899;27;20145;-84
2024/02/01 03:42:05;;;;;;;0.60;0.60;;;4.60;99.90;;;;;;5130771;27;20085;-83
2024/02/01 03:44:31;;;;;;;0.60;0.60;;;4.60;99.90;;;;;;5149608;27;20058;-83
2024/02/01 03:46:57;;;;;;;0.68;0.68;;;4.60;99.90;;;;;;5134616;27;20050;-82
2024/02/01 03:49:24;;;;;;;0.60;0.60;;;4.60;99.90;;;;;;5148495;27;20043;-83
2024/02/01 03:51:50;;;;;;;0.60;0.60;;;5.80;99.90;;;;;;5130382;27;20039;-82
2024/02/01 03:54:16;;;;;;;0.80;0.80;;;4.50;99.90;;;;;;5146352;27;20058;-84
2024/02/01 03:56:42;;;;;;;0.60;0.60;;;4.50;99.90;;;;;;5143783;27;20095;-80
2024/02/01 03:59:09;;;;;;;0.80;0.80;;;4.50;99.90;;;;;;5148402;27;20043;-81
2024/02/01 04:01:53;;;;;;;0.52;0.52;;;4.60;99.90;;;;;;5150437;27;20116;-80
2024/02/01 04:04:21;;;;;;;0.63;0.63;;;5.40;99.90;;;;;;5143543;27;20038;-81
2024/02/01 04:06:51;;;;;;;0.70;0.70;;;4.40;99.90;;;;;;5147838;27;20045;-80
2024/02/01 04:09:18;;;;;;;0.82;0.82;;;4.40;99.90;;;;;;5143547;27;20034;-78
2024/02/01 04:11:44;;;;;;;0.60;0.60;;;4.50;99.90;;;;;;5143739;27;20047;-81
2024/02/01 04:14:09;;;;;;;0.50;0.50;;;4.50;99.90;;;;;;5146158;27;20039;-80
2024/02/01 04:16:37;;;;;;;0.70;0.70;;;4.50;99.90;;;;;;5145128;27;20051;-81
2024/02/01 04:19:03;;;;;;;0.60;0.60;;;4.40;99.90;;;;;;5151535;27;20045;-80
2024/02/01 04:21:28;;;;;;;0.70;0.70;;;5.90;99.90;;;;;;5143812;27;20042;-80
2024/02/01 04:23:56;;;;;;;2.30;2.20;;;4.60;99.90;;;;;;5144053;27;20385;-81
2024/02/01 04:26:22;;;;;;;1.15;1.15;;;4.30;99.90;;;;;;5142987;27;20050;-80
2024/02/01 04:28:51;;;;;;;12.18;1.95;;;4.30;99.90;;;;;;5112833;27;20031;-80
2024/02/01 04:31:18;;;;;;;1.02;1.02;;;4.30;99.90;;;;;;5150749;27;20039;-80
2024/02/01 04:33:46;;;;;;;0.50;0.50;;;4.30;99.90;;;;;;5127679;27;20047;-82
2024/02/01 04:36:14;;;;;;;0.60;0.60;;;4.30;99.90;;;;;;5145308;27;20073;-82
2024/02/01 04:38:40;;;;;;;0.70;0.70;;;4.30;99.90;;;;;;5146932;27;20111;-80
2024/02/01 04:41:06;;;;;;;0.63;0.63;;;4.30;99.90;;;;;;5149100;27;20046;-81
2024/02/01 04:43:33;;;;;;;0.80;0.80;;;4.30;99.90;;;;;;5143713;27;20070;-81
2024/02/01 04:45:59;;;;;;;0.50;0.50;;;;;;;;;;5154412;27;20038;-82
2024/02/01 04:48:25;;;;;;;;;;;4.10;99.90;;;;;;5147019;27;20099;-79
2024/02/01 04:50:51;;;;;;;0.50;0.50;;;4.00;99.90;;;;;;5144697;27;20436;-82
2024/02/01 04:53:17;;;;;;;0.70;0.70;;;4.00;99.90;;;;;;5116219;27;20046;-79
2024/02/01 04:55:44;;;;;;;0.68;0.68;;;3.50;99.90;;;;;;5143079;27;20051;-80
2024/02/01 04:58:11;;;;;;;1.10;1.10;;;3.90;99.90;;;;;;5149509;27;20042;-81
2024/02/01 05:00:37;;;;;;;0.57;0.57;;;4.10;99.90;;;;;;5126015;27;20084;-79
2024/02/01 05:03:04;;;;;;;0.60;0.60;;;4.70;99.90;;;;;;5152696;27;20087;-81
2024/02/01 05:05:30;;;;;;;0.70;0.70;;;3.80;99.90;;;;;;5140427;27;20043;-82
2024/02/01 05:07:59;;;;;;;0.57;0.57;;;;;;;;;;5152133;27;20438;-79
2024/02/01 05:10:25;;;;;;;0.93;0.93;;;;;;;;;;5150752;27;20050;-81
2024/02/01 05:12:53;;;;;;;;;;;;;;;;;;5145978;27;20570;-79
2024/02/01 05:15:20;;;;;;;0.50;0.50;;;;;;;;;;5142233;27;19915;-82
2024/02/01 05:17:47;;;;;;;0.70;0.70;;;;;;;;;;5142669;27;20523;-82
2024/02/01 05:20:13;;;;;;;0.60;0.60;;;;;;;;;;5152638;27;20120;-80
2024/02/01 05:22:40;;;;;;;0.60;0.60;;;;;;;;;;5148784;27;20051;-81
2024/02/01 05:25:15;;;;;;;0.60;0.60;;;;;;;;;;5124066;27;20031;-80
2024/02/01 05:27:50;;;;;;;4.32;3.20;;;;;;;;;;5143375;27;20046;-80
2024/02/01 05:30:16;;;;;;;0.70;0.70;;;;;;;;;;5144380;27;20478;-81
2024/02/01 05:32:52;;;;;;;0.60;0.60;;;;;;;;;;5126105;27;20076;-82
2024/02/01 05:35:28;;;;;;;0.60;0.60;;;;;;;;;;5147002;27;20047;-80
2024/02/01 05:37:55;;;;;;;0.68;0.68;;;;;;;;;;5146152;27;20049;-81
2024/02/01 05:40:21;;;;;;;0.50;0.50;;;;;;;;;;5144892;27;20039;-80
2024/02/01 05:42:50;;;;;;;0.70;0.70;;;;;;;;;;5143280;27;20041;-80
2024/02/01 05:45:18;;;;;;;0.70;0.70;;;;;;;;;;5146747;27;20099;-80
2024/02/01 05:47:45;;;;;;;0.40;0.40;;;;;;;;;;5142510;27;20042;-81
2024/02/01 05:50:14;;;;;;;0.60;0.60;;;;;;;;;;5142532;27;20039;-81
2024/02/01 05:52:41;;;;;;;0.60;0.60;;;;;;;;;;5141486;27;20039;-80
2024/02/01 05:55:10;;;;;;;0.65;0.65;;;;;;;;;;5141514;27;20043;-82
2024/02/01 05:57:41;;;;;;;0.60;0.60;;;;;;;;;;5144847;27;20532;-81
2024/02/01 06:00:21;;;;;;;0.60;0.60;;;;;;;;;;5145077;27;20115;-80
2024/02/01 06:02:49;;;;;;;0.70;0.70;;;;;;;;;;5144091;27;20433;-81
2024/02/01 06:05:15;;;;;;;0.90;0.90;;;;;;;;;;5149754;27;20042;-82
2024/02/01 06:07:42;;;;;;;0.90;0.90;;;;;;;;;;5144098;27;20180;-82
2024/02/01 06:10:08;;;;;;;0.70;0.70;;;;;;;;;;5143542;27;20037;-80
2024/02/01 06:12:37;;;;;;;0.60;0.60;;;;;;;;;;5150042;27;20150;-82
2024/02/01 06:15:05;;;;;;;0.60;0.60;;;;;;;;;;5141803;27;20045;-82
2024/02/01 06:17:31;;;;;;;0.60;0.60;;;;;;;;;;5125661;27;20035;-82
2024/02/01 06:19:57;;;;;;;;;;;;;;;;;;5145459;27;20031;-80
2024/02/01 06:22:25;;;;;;;0.70;0.70;;;;;;;;;;5141246;27;19923;-81
2024/02/01 06:24:53;;;;;;;0.68;0.68;;;;;;;;;;5143617;27;20038;-81
2024/02/01 06:27:22;;;;;;;0.70;0.70;;;;;;;;;;5144115;27;20519;-81
2024/02/01 06:29:48;;;;;;;0.60;0.60;;;;;;;;;;5145883;27;20392;-81
2024/02/01 06:32:20;;;;;;;0.55;0.55;;;;;;;;;;5144208;27;20685;-83
2024/02/01 06:34:53;;;;;;;;;;;;;;;;;;5142331;27;20043;-80
2024/02/01 06:37:21;;;;;;;0.63;0.63;;;;;;;;;;5142647;27;19915;-81
2024/02/01 06:42:33;;;;;;;0.60;0.60;;;;;;;;;;5134574;27;20089;-82
2024/02/01 06:45:09;;;;;;;0.63;0.63;;;;;;;;;;5142592;27;20043;-82
2024/02/01 06:47:39;;;;;;;0.70;0.70;;;;;;;;;;5129331;27;20122;-81
2024/02/01 06:50:45;;;;;;;0.70;0.70;;;;;;;;;;5141858;27;20503;-82
2024/02/01 06:53:19;;;;;;;0.70;0.70;;;;;;;;;;5145884;27;20403;-80
2024/02/01 06:56:06;;;;;;;0.50;0.50;;;;;;;;;;5144499;27;20110;-83
2024/02/01 06:58:47;;;;;;;1.48;1.40;;;;;;;;;;5149928;27;20082;-82
2024/02/01 07:01:24;;;;;;;0.77;0.77;;;;;;;;;;5151420;27;21973;-82
2024/02/01 07:06:53;;;;;;;0.60;0.60;;;;;;;;;;5163201;27;20038;-80
2024/02/01 07:09:28;;;;;;;0.60;0.60;;;;;;;;;;5151609;27;20035;-82
2024/02/01 07:12:18;;;;;;;0.60;0.60;;;;;;;;;;5147286;27;20118;-82
2024/02/01 07:15:09;;;;;;;0.52;0.52;;;;;;;;;;5152870;27;20058;-82
2024/02/01 07:17:43;;;;;;;0.70;0.70;;;;;;;;;;5150388;27;20042;-83
2024/02/01 07:20:23;;;;;;;0.60;0.60;;;;;;;;;;5153124;27;20043;-82
2024/02/01 07:23:33;;;;;;;0.70;0.70;;;;;;;;;;5152074;27;20053;-80
2024/02/01 07:26:35;;;;;;;0.60;0.60;;;;;;;;;;5147989;27;20043;-82
2024/02/01 07:59:58;;;;;;;0.70;0.70;;;;;;;;;;5160842;27;20039;-88
2024/02/01 08:02:44;;;;;;;0.73;0.73;;;;;;;;;;5164668;27;20047;-91
2024/02/01 08:07:56;;;;;;;0.55;0.55;;;;;;;;;;5160074;27;20047;-89
2024/02/01 08:10:24;;;;;;;0.60;0.60;;;;;;;;;;5129808;27;20062;-93
2024/02/01 08:12:50;;;;;;;0.60;0.60;;;;;;;;;;5156351;27;20039;-92
2024/02/01 08:15:24;;;;;;;0.77;0.63;;;;;;;;;;5159991;27;20049;-89
2024/02/01 08:17:58;;;;;;;1.50;1.40;;;;;;;;;;5164819;27;20043;-91
2024/02/01 08:20:26;;;;;;;0.60;0.60;;;;;;;;;;5170791;27;20031;-91
2024/02/01 08:23:00;;;;;;;1.85;1.73;;;;;;;;;;5157070;27;20091;-92
2024/02/01 08:25:27;;;;;;;4.53;2.45;;;;;;;;;;5174542;27;20043;-92
2024/02/01 08:28:06;;;;;;;0.63;0.63;;;;;;;;;;5162289;27;20043;-91
2024/02/01 08:30:32;;;;;;;2.85;1.70;;;;;;;;;;5145505;27;20043;-89
2024/02/01 08:33:15;;;;;;;0.70;0.70;;;;;;;;;;5151618;27;20049;-89
2024/02/01 08:35:44;;;;;;;0.70;0.70;;;;;;;;;;5173207;27;20069;-91
2024/02/01 08:38:15;;;;;;;0.52;0.52;;;;;;;;;;5158063;27;20039;-83
2024/02/01 08:40:41;;;;;;;0.57;0.57;;;;;;;;;;5139465;27;20523;-81
2024/02/01 08:43:10;;;;;;;0.73;0.73;;;;;;;;;;5150687;27;20027;-84
2024/02/01 08:45:42;;;;;;;0.60;0.60;;;;;;;;;;5155223;27;20488;-82
2024/02/01 08:48:09;;;;;;;0.63;0.63;;;;;;;;;;5156713;27;20048;-83
2024/02/01 08:50:43;;;;;;;0.82;0.82;;;;;;;;;;5154974;27;20488;-83
2024/02/01 08:53:12;;;;;;;1.88;1.15;;;;;;;;;;5135754;27;20046;-82
2024/02/01 08:55:41;;;;;;;0.75;0.75;;;;;;;;;;5132134;27;20121;-83
2024/02/01 08:58:08;;;;;;;0.68;0.68;;;4.70;99.90;;;;;;5156520;27;20047;-81
2024/02/01 09:00:36;;;;;;;0.65;0.65;;;4.80;99.90;;;;;;5136843;27;20082;-83
2024/02/01 09:03:10;;;;;;;0.55;0.55;;;4.90;99.90;;;;;;5135346;27;20080;-83
2024/02/01 09:05:50;;;;;;;0.70;0.70;;;4.90;99.90;;;;;;5139091;27;20073;-82
2024/02/01 09:08:35;;;;;;;0.70;0.70;;;5.00;99.90;;;;;;5154245;27;20087;-84
2024/02/01 09:11:12;;;;;;;1.13;1.02;;;5.30;99.90;;;;;;5130346;27;20039;-81
2024/02/01 09:13:46;;;;;;;0.60;0.60;;;5.10;99.90;;;;;;5139100;27;20062;-81
2024/02/01 09:16:20;;;;;;;0.52;0.52;;;5.20;99.90;;;;;;5136816;27;20034;-81
2024/02/01 09:18:47;;;;;;;0.57;0.57;;;5.20;99.90;;;;;;5158819;27;20038;-82
2024/02/01 09:21:19;;;;;;;0.70;0.70;;;5.20;99.90;;;;;;5138093;27;20509;-83
2024/02/01 09:23:51;;;;;;;0.77;0.77;;;5.50;99.90;;;;;;5158513;27;20263;-82
2024/02/01 09:26:16;;;;;;;0.68;0.68;;;5.40;99.90;;;;;;5155850;27;20033;-81
2024/02/01 09:28:45;;;;;;;0.80;0.80;;;5.40;99.90;;;;;;5152969;27;20066;-83
2024/02/01 09:33:57;;;;;;;0.52;0.52;;;5.60;99.90;;;;;;5159366;27;20039;-80
2024/02/01 09:36:24;;;;;;;0.70;0.70;;;6.30;99.90;;;;;;5162178;27;20464;-82
2024/02/01 09:38:54;;;;;;;0.88;0.88;;;5.70;99.90;;;;;;5157084;27;20058;-81
2024/02/01 09:41:25;;;;;;;0.60;0.60;;;5.80;99.90;;;;;;5139004;27;20051;-80
2024/02/01 09:43:52;;;;;;;2.72;2.60;;;5.90;99.90;;;;;;5153696;27;20041;-80
2024/02/01 09:46:21;;;;;;;1.75;1.67;;;5.90;99.90;;;;;;5159477;27;20373;-82
2024/02/01 09:48:49;;;;;;;0.50;0.50;;;6.00;99.90;;;;;;5141094;27;20039;-81
2024/02/01 09:51:19;;;;;;;0.70;0.70;;;6.00;99.90;;;;;;5126168;27;20039;-82
2024/02/01 09:53:52;;;;;;;0.52;0.52;;;6.20;99.90;;;;;;5153187;27;20039;-81
2024/02/01 09:56:25;;;;;;;1.33;1.20;;;6.10;99.90;;;;;;5138747;27;20282;-82
2024/02/01 09:59:01;;;;;;;0.57;0.57;;;6.30;99.90;;;;;;5155702;27;20123;-83
2024/02/01 10:01:29;;;;;;;0.40;0.40;;;6.30;99.90;;;;;;5154492;27;20054;-78
2024/02/01 10:03:55;;;;;;;0.90;0.90;;;6.40;99.90;;;;;;5153411;27;20070;-77
2024/02/01 10:06:30;;;;;;;0.60;0.60;;;6.50;99.90;;;;;;5150936;27;20038;-82
2024/02/01 10:09:14;;;;;;;0.55;0.55;;;6.50;99.90;;;;;;5151701;27;20475;-82
2024/02/01 10:11:40;;;;;;;2.10;1.98;;;6.60;99.90;;;;;;5150784;27;20101;-79
2024/02/01 10:14:16;;;;;;;0.55;0.55;;;6.70;99.90;;;;;;5155568;27;20034;-82
2024/02/01 10:16:43;;;;;;;0.50;0.50;;;6.70;99.90;;;;;;5149049;27;20064;-82
2024/02/01 10:19:14;;;;;;;0.50;0.50;;;6.70;99.90;;;;;;5152240;27;20050;-82
2024/02/01 10:22:11;;;;;;;0.50;0.50;;;6.80;99.90;;;;;;5142548;27;20111;-83
2024/02/01 10:24:48;;;;;;;0.50;0.50;;;6.90;99.90;;;;;;5147697;27;20058;-81
2024/02/01 10:27:21;;;;;;;2.50;0.70;;;6.90;99.90;;;;;;5151677;27;20031;-82
2024/02/01 10:30:09;;;;;;;1.88;1.75;;;7.00;99.90;;;;;;5112339;27;20037;-83
2024/02/01 10:32:46;;;;;;;0.60;0.60;;;7.00;99.90;;;;;;5155526;27;20487;-81
2024/02/01 10:35:22;;;;;;;0.38;0.38;;;7.10;99.90;;;;;;5154869;27;20066;-80
2024/02/01 10:37:53;;;;;;;0.40;0.40;;;7.10;99.90;;;;;;5157976;27;20049;-82
2024/02/01 10:40:26;;;;;;;0.50;0.50;;;7.10;99.90;;;;;;5158607;27;20388;-80
2024/02/01 10:43:00;;;;;;;1.40;1.30;;;7.10;99.90;;;;;;5154742;27;20072;-82
2024/02/01 10:45:32;;;;;;;0.43;0.43;;;7.10;99.90;;;;;;5148898;27;20034;-83
2024/02/01 10:48:10;;;;;;;1.10;0.70;;;7.10;99.90;;;;;;5153411;27;20118;-82
2024/02/01 10:50:43;;;;;;;0.50;0.50;;;7.20;99.90;;;;;;5147318;27;20117;-81
2024/02/01 10:53:15;;;;;;;0.68;0.68;;;7.20;99.90;;;;;;5150172;27;20107;-80
2024/02/01 10:55:48;;;;;;;0.50;0.50;;;7.30;99.90;;;;;;5136590;27;20396;-79
2024/02/01 10:58:21;;;;;;;0.60;0.60;;;7.30;99.90;;;;;;5157002;27;20071;-82
2024/02/01 11:00:57;;;;;;;0.55;0.55;;;7.30;99.90;;;;;;5146701;27;20430;-82
2024/02/01 11:03:58;;;;;;;0.90;0.90;;;7.30;99.90;;;;;;5154202;27;20053;-81
2024/02/01 11:06:25;;;;;;;0.68;0.68;;;7.40;99.90;;;;;;5160408;27;20035;-82
2024/02/01 11:09:22;;;;;;;0.88;0.88;;;7.40;99.90;;;;;;5158997;27;20381;-84
2024/02/01 11:11:56;;;;;;;1.10;0.73;;;7.40;99.90;;;;;;5152809;27;20046;-82
2024/02/01 11:14:38;;;;;;;1.40;1.38;;;7.40;99.90;;;;;;5158578;27;20484;-83
2024/02/01 11:17:09;;;;;;;0.63;0.63;;;7.90;99.90;;;;;;5152225;27;20080;-81
2024/02/01 11:19:37;;;;;;;1.10;1.10;;;7.40;99.90;;;;;;5147965;27;20104;-81
2024/02/01 11:22:05;;;;;;;0.40;0.40;;;7.40;99.90;;;;;;5156105;27;20070;-82
2024/02/01 11:24:41;;;;;;;8.15;1.73;;;7.40;99.90;;;;;;5153335;27;20161;-82
2024/02/01 11:27:15;;;;;;;5.47;4.22;;;8.00;99.90;;;;;;5156229;27;20499;-82
2024/02/01 11:29:55;;;;;;;3.13;0.93;;;7.50;99.90;;;;;;5140752;27;20137;-80
2024/02/01 11:32:22;;;;;;;0.60;0.60;;;7.50;99.90;;;;;;5153898;27;20496;-81
2024/02/01 11:34:49;;;;;;;0.60;0.60;;;7.60;99.90;;;;;;5110510;28;20038;-81
2024/02/01 11:37:24;;;;;;;0.85;0.85;;;7.60;99.90;;;;;;5148655;27;20030;-82
2024/02/01 11:39:53;;;;;;;0.50;0.50;;;7.60;99.90;;;;;;5150489;27;20087;-80
2024/02/01 11:42:28;;;;;;;1.52;1.52;;;7.60;99.90;;;;;;5148519;27;20042;-82
2024/02/01 11:45:11;;;;;;;0.40;0.40;;;7.80;99.90;;;;;;5151974;27;20053;-81
2024/02/01 11:47:42;;;;;;;0.82;0.82;;;7.70;99.90;;;;;;5153818;27;20050;-80
2024/02/01 11:50:14;;;;;;;5.68;0.60;;;7.70;99.90;;;;;;5150719;27;20043;-82
2024/02/01 11:53:08;;;;;;;0.50;0.50;;;7.70;99.90;;;;;;5133369;27;20530;-79
2024/02/01 11:55:34;;;;;;;0.47;0.47;;;7.70;99.90;;;;;;5152058;27;20053;-79
2024/02/01 11:58:12;;;;;;;0.40;0.40;;;7.80;99.90;;;;;;5159511;27;20042;-83
2024/02/01 12:00:38;;;;;;;0.50;0.50;;;7.80;99.90;;;;;;5155519;27;20035;-80
2024/02/01 12:03:08;;;;;;;0.50;0.50;;;7.80;99.90;;;;;;5154252;27;20070;-81
2024/02/01 12:05:34;;;;;;;0.50;0.50;;;7.80;99.90;;;;;;5135904;27;20035;-80
2024/02/01 12:08:04;;;;;;;0.40;0.40;;;7.90;99.90;;;;;;5153406;27;20070;-79
2024/02/01 12:10:39;;;;;;;0.60;0.60;;;7.90;99.90;;;;;;5148726;27;20095;-81
2024/02/01 12:13:05;;;;;;;1.48;1.38;;;7.90;99.90;;;;;;5142435;27;20043;-79
2024/02/01 12:15:36;;;;;;;0.63;0.63;;;7.90;99.90;;;;;;5151350;27;20049;-82
2024/02/01 12:18:08;;;;;;;1.90;1.80;;;7.90;99.90;;;;;;5152208;27;20068;-82
2024/02/01 12:20:34;;;;;;;0.80;0.80;;;8.10;99.90;;;;;;5149395;27;20039;-80
2024/02/01 12:23:03;;;;;;;0.75;0.75;;;8.20;99.90;;;;;;5111004;27;20050;-81
2024/02/01 12:25:33;;;;;;;0.75;0.75;;;7.80;99.90;;;;;;5131309;27;20364;-79
2024/02/01 12:27:59;;;;;;;0.80;0.80;;;7.90;99.90;;;;;;5135563;27;20049;-81
2024/02/01 12:30:32;;;;;;;0.50;0.50;;;8.00;99.90;;;;;;5156549;27;20079;-81
2024/02/01 12:33:12;;;;;;;0.50;0.50;;;8.00;99.90;;;;;;5156028;27;20054;-80
2024/02/01 12:35:43;;;;;;;0.40;0.40;;;8.00;99.90;;;;;;5136903;27;20064;-78
2024/02/01 12:38:10;;;;;;;1.48;1.48;;;8.00;99.90;;;;;;5154231;27;20045;-80
2024/02/01 12:40:40;;;;;;;1.80;1.70;;;8.00;99.90;;;;;;5150968;27;20084;-80
2024/02/01 12:43:08;;;;;;;0.45;0.45;;;8.00;99.90;;;;;;5150152;27;20046;-81
2024/02/01 12:45:46;;;;;;;1.13;1.05;;;8.10;99.90;;;;;;5157975;27;20026;-80
2024/02/01 12:48:17;;;;;;;0.57;0.57;;;8.10;99.90;;;;;;5151915;27;20099;-78
2024/02/01 12:50:45;;;;;;;0.50;0.50;;;8.10;99.90;;;;;;5135189;27;20049;-80
2024/02/01 12:53:12;;;;;;;0.50;0.50;;;8.10;99.90;;;;;;5153134;27;20081;-81
2024/02/01 12:55:39;;;;;;;0.40;0.40;;;8.10;99.90;;;;;;5154209;27;20091;-81
2024/02/01 12:58:05;;;;;;;0.65;0.65;;;8.10;99.90;;;;;;5152908;27;20042;-80
2024/02/01 13:00:35;;;;;;;1.35;1.35;;;8.00;99.90;;;;;;5152569;27;20050;-79
2024/02/01 13:03:01;;;;;;;2.97;2.85;;;8.00;99.90;;;;;;5149692;27;20039;-80
2024/02/01 13:05:28;;;;;;;0.73;0.73;;;8.10;99.90;;;;;;5149729;27;20058;-79
2024/02/01 13:07:54;;;;;;;0.60;0.60;;;8.10;99.90;;;;;;5136836;27;20047;-79
2024/02/01 13:10:38;;;;;;;0.57;0.57;;;8.10;99.90;;;;;;5152929;27;20041;-81
2024/02/01 13:13:09;;;;;;;3.10;2.85;;;8.10;99.90;;;;;;5151993;27;20416;-80
2024/02/01 13:15:39;;;;;;;0.50;0.50;;;8.10;99.90;;;;;;5152250;27;20039;-79
2024/02/01 13:18:11;;;;;;;1.10;0.63;;;8.10;99.90;;;;;;5149530;27;20193;-80
2024/02/01 13:20:38;;;;;;;0.50;0.50;;;8.20;99.90;;;;;;5130766;27;20035;-82
2024/02/01 13:23:09;;;;;;;0.55;0.55;;;8.20;99.90;;;;;;5149102;27;20138;-78
2024/02/01 13:25:41;;;;;;;0.57;0.57;;;8.20;99.90;;;;;;5154179;27;20035;-82
2024/02/01 13:28:10;;;;;;;0.30;0.30;;;8.20;99.90;;;;;;5152945;27;20100;-79
2024/02/01 13:30:45;;;;;;;1.10;1.05;;;8.80;99.90;;;;;;5146856;27;20068;-78
2024/02/01 13:33:12;;;;;;;0.50;0.50;;;8.10;99.90;;;;;;5148076;27;20030;-79
2024/02/01 13:35:38;;;;;;;0.60;0.60;;;8.10;99.90;;;;;;5152052;27;20051;-82
2024/02/01 13:38:13;;;;;;;0.50;0.50;;;7.40;99.90;;;;;;5150959;27;20042;-83
2024/02/01 13:40:47;;;;;;;;;;;8.10;99.90;;;;;;5148415;27;20077;-78
2024/02/01 13:43:17;;;;;;;0.57;0.57;;;8.10;99.90;;;;;;5147717;27;19966;-82
2024/02/01 13:45:46;;;;;;;0.57;0.57;;;8.20;99.90;;;;;;5146073;27;20038;-80
2024/02/01 13:48:12;;;;;;;0.50;0.50;;;8.20;99.90;;;;;;5144718;27;20126;-80
2024/02/01 13:50:38;;;;;;;0.68;0.68;;;8.10;99.90;;;;;;5112656;27;20117;-80
2024/02/01 13:53:04;;;;;;;0.40;0.40;;;8.10;99.90;;;;;;5130871;27;20043;-78
2024/02/01 13:55:30;;;;;;;;;;;8.10;99.90;;;;;;5147153;27;20043;-79
2024/02/01 13:57:59;;;;;;;0.75;0.75;;;8.20;99.90;;;;;;5146608;27;20336;-79
2024/02/01 14:00:24;;;;;;;0.40;0.40;;;8.20;99.90;;;;;;5129027;27;20092;-80
2024/02/01 14:02:53;;;;;;;0.57;0.57;;;8.20;99.90;;;;;;5148358;27;20043;-79
2024/02/01 14:05:21;;;;;;;0.60;0.60;;;8.20;99.90;;;;;;5151789;27;20031;-79
2024/02/01 14:07:56;;;;;;;0.30;0.30;;;8.50;99.90;;;;;;5139397;27;20061;-86
2024/02/01 14:10:24;;;;;;;0.40;0.40;;;8.90;99.90;;;;;;5147321;27;20129;-81
2024/02/01 14:12:49;;;;;;;1.58;0.80;;;9.10;99.90;;;;;;5147759;27;20399;-79
2024/02/01 14:15:17;;;;;;;0.40;0.40;;;9.30;99.90;;;;;;5148948;27;20038;-83
2024/02/01 14:17:45;;;;;;;0.75;0.75;;;9.40;99.90;;;;;;5150281;27;20142;-79
2024/02/01 14:20:14;;;;;;;0.40;0.40;;;9.50;99.90;;;;;;5149029;27;20450;-87